Weather at Casper-Natrona County International Airport

Public forecast

Using degrees Fahrenheit for public forecast. Weather courtesy of forecast.io.

Current aviation weather report (METAR) for Casper-Natrona County International Airport

Report is more than 6 hours old.

2022/11/14 14:53 (retrieved 2 years ago)

KCPR 141453Z 22009KT 10SM CLR M07/M10 A3010 RMK AO2 SLP241 T10671100 53005

Aviation forecast (TAF) for Casper-Natrona County International Airport

Forecast is more than 12 hours old.

2023/02/22 18:27 (retrieved 1 year ago)

TAF KCPR 221725Z 2218/2318 07015G25KT 3/4SM -SN BLSN SCT008 OVC013 FM222200 04011G17KT 2SM -SN SCT009 OVC015 FM230500 35009KT P6SM SCT010 OVC020 FM231000 26008KT P6SM SCT020 BKN030 FM231500 08010KT P6SM SCT030 BKN035